createdAt,value
2017-12-05T00:00:48.895Z,3.8
2017-12-05T00:01:48.657Z,3.69
2017-12-05T00:02:48.921Z,3.63
2017-12-05T00:03:48.933Z,3.73
2017-12-05T00:04:48.944Z,3.63
2017-12-05T00:05:48.954Z,3.62
2017-12-05T00:06:48.474Z,3.78
2017-12-05T00:07:48.989Z,3.8
2017-12-05T00:08:49.000Z,3.78
2017-12-05T00:09:49.013Z,3.73
2017-12-05T00:10:48.522Z,3.68
2017-12-05T00:11:49.040Z,3.62
2017-12-05T00:12:48.796Z,3.68
2017-12-05T00:13:48.809Z,3.65
2017-12-05T00:14:48.824Z,3.78
2017-12-05T00:15:49.093Z,3.73
2017-12-05T00:16:49.100Z,3.62
2017-12-05T00:17:48.609Z,3.76
2017-12-05T00:18:49.135Z,3.76
2017-12-05T00:19:48.889Z,3.73
2017-12-05T00:20:49.152Z,3.73
2017-12-05T00:21:49.171Z,3.77
2017-12-05T00:22:49.180Z,3.86
2017-12-05T00:23:49.190Z,3.8
2017-12-05T00:24:49.204Z,3.81
2017-12-05T00:25:48.961Z,3.87
2017-12-05T00:26:49.231Z,3.88
2017-12-05T00:27:49.251Z,3.83
2017-12-05T00:28:49.009Z,3.74
2017-12-05T00:29:49.271Z,3.88
2017-12-05T00:30:49.281Z,3.83
2017-12-05T00:31:49.042Z,3.77
2017-12-05T00:32:49.326Z,3.77
2017-12-05T00:33:49.320Z,3.74
2017-12-05T00:34:49.090Z,3.73
2017-12-05T00:35:49.341Z,3.76
2017-12-05T00:36:49.360Z,3.74
2017-12-05T00:37:49.371Z,3.77
2017-12-05T00:38:49.385Z,3.8
2017-12-05T00:39:49.393Z,3.86
2017-12-05T00:40:49.155Z,3.74
2017-12-05T00:41:49.170Z,3.69
2017-12-05T00:42:49.187Z,3.73
2017-12-05T00:43:49.198Z,3.62
2017-12-05T00:44:49.458Z,3.77
2017-12-05T00:45:49.473Z,3.76
2017-12-05T00:46:49.232Z,3.83
2017-12-05T00:47:49.493Z,3.74
2017-12-05T00:48:49.258Z,3.69
2017-12-05T00:49:49.276Z,3.66
2017-12-05T00:50:49.284Z,3.8
2017-12-05T00:51:49.578Z,3.68
2017-12-05T00:52:49.339Z,3.7
2017-12-05T00:53:49.320Z,3.66
2017-12-05T00:54:49.584Z,3.76
2017-12-05T00:55:49.598Z,3.74
2017-12-05T00:56:49.611Z,3.84
2017-12-05T00:57:49.623Z,3.81
2017-12-05T00:58:49.645Z,3.78
2017-12-05T00:59:49.143Z,3.74
2017-12-05T01:00:49.156Z,3.8
2017-12-05T01:01:49.672Z,3.74
2017-12-05T01:02:49.437Z,3.62
2017-12-05T01:03:49.451Z,3.68
2017-12-05T01:04:49.713Z,3.6
2017-12-05T01:05:49.729Z,3.55
2017-12-05T01:06:49.746Z,3.63
2017-12-05T01:07:49.755Z,3.53
2017-12-05T01:08:49.766Z,3.65
2017-12-05T01:09:49.273Z,3.58
2017-12-05T01:10:49.838Z,3.6
2017-12-05T01:11:49.801Z,3.6
2017-12-05T01:12:49.562Z,3.59
2017-12-05T01:13:49.825Z,3.53
2017-12-05T01:14:49.842Z,3.53
2017-12-05T01:15:49.603Z,3.5
2017-12-05T01:16:49.612Z,3.48
2017-12-05T01:17:49.651Z,3.45
2017-12-05T01:18:49.386Z,3.37
2017-12-05T01:19:49.900Z,3.4
2017-12-05T01:20:49.915Z,3.53
2017-12-05T01:21:49.930Z,3.32
2017-12-05T01:22:49.949Z,3.37
2017-12-05T01:23:49.952Z,3.34
2017-12-05T01:24:49.967Z,3.45
2017-12-05T01:25:49.986Z,3.53
2017-12-05T01:26:49.990Z,3.47
2017-12-05T01:27:50.201Z,3.6
2017-12-05T01:28:49.760Z,3.62
2017-12-05T01:29:50.025Z,3.69
2017-12-05T01:30:50.050Z,3.48
2017-12-05T01:31:50.054Z,3.51
2017-12-05T01:32:50.067Z,3.51
2017-12-05T01:33:49.824Z,3.51
2017-12-05T01:34:49.840Z,3.48
2017-12-05T01:35:49.849Z,3.5
2017-12-05T01:36:50.116Z,3.58
2017-12-05T01:37:50.126Z,3.48
2017-12-05T01:38:50.139Z,3.48
2017-12-05T01:39:50.159Z,3.4
2017-12-05T01:40:50.168Z,3.37
2017-12-05T01:41:50.196Z,3.44
2017-12-05T01:42:49.941Z,3.36
2017-12-05T01:43:50.206Z,3.42
2017-12-05T01:44:49.969Z,3.5
2017-12-05T01:45:50.230Z,3.4
2017-12-05T01:46:50.243Z,3.28
2017-12-05T01:47:49.753Z,3.45
2017-12-05T01:48:49.763Z,3.47
2017-12-05T01:49:50.026Z,3.48
2017-12-05T01:50:50.296Z,3.36
2017-12-05T01:51:50.302Z,3.34
2017-12-05T01:52:50.319Z,3.28
2017-12-05T01:53:50.078Z,3.25
2017-12-05T01:54:50.090Z,3.37
2017-12-05T01:55:50.105Z,3.5
2017-12-05T01:56:50.417Z,3.51
2017-12-05T01:57:49.878Z,3.47
2017-12-05T01:58:49.888Z,3.45
2017-12-05T01:59:49.899Z,3.44
2017-12-05T02:00:50.419Z,3.36
2017-12-05T02:01:50.431Z,3.44
2017-12-05T02:02:50.442Z,3.42
2017-12-05T02:03:50.455Z,3.41
2017-12-05T02:04:49.961Z,3.4
2017-12-05T02:05:50.498Z,3.53
2017-12-05T02:06:50.495Z,3.5
2017-12-05T02:07:50.262Z,3.36
2017-12-05T02:08:50.523Z,3.41
2017-12-05T02:09:50.276Z,3.29
2017-12-05T02:10:50.039Z,3.5
2017-12-05T02:11:50.356Z,3.4
2017-12-05T02:12:50.567Z,3.42
2017-12-05T02:13:50.585Z,3.25
2017-12-05T02:14:50.595Z,3.31
2017-12-05T02:15:50.605Z,3.31
2017-12-05T02:16:50.464Z,3.31
2017-12-05T02:17:50.632Z,3.29
2017-12-05T02:18:50.645Z,3.34
2017-12-05T02:19:50.658Z,3.34
2017-12-05T02:20:50.676Z,3.29
2017-12-05T02:21:50.680Z,3.29
2017-12-05T02:22:50.438Z,3.25
2017-12-05T02:23:50.713Z,3.26
2017-12-05T02:24:50.715Z,3.23
2017-12-05T02:25:50.225Z,3.26
2017-12-05T02:26:50.538Z,3.14
2017-12-05T02:27:50.249Z,3.13
2017-12-05T02:28:50.770Z,3.07
2017-12-05T02:29:50.778Z,3.28
2017-12-05T02:30:50.796Z,3.08
2017-12-05T02:31:50.561Z,3.1
2017-12-05T02:32:50.563Z,3
2017-12-05T02:33:50.325Z,3.16
2017-12-05T02:34:50.588Z,3.16
2017-12-05T02:35:50.604Z,3.03
2017-12-05T02:36:50.869Z,3.21
2017-12-05T02:37:50.627Z,3.14
2017-12-05T02:38:50.892Z,3.23
2017-12-05T02:39:50.651Z,3.23
2017-12-05T02:40:50.667Z,3.18
2017-12-05T02:41:50.728Z,3.21
2017-12-05T02:42:50.686Z,3.29
2017-12-05T02:43:50.953Z,3.31
2017-12-05T02:44:50.716Z,3.32
2017-12-05T02:45:50.994Z,3.28
2017-12-05T02:46:50.744Z,3.29
2017-12-05T02:47:51.003Z,3.25
2017-12-05T02:48:51.016Z,3.32
2017-12-05T02:49:50.774Z,3.23
2017-12-05T02:50:50.841Z,3.32
2017-12-05T02:51:51.049Z,3.32
2017-12-05T02:52:51.068Z,3.37
2017-12-05T02:53:50.823Z,3.26
2017-12-05T02:54:50.582Z,3.36
2017-12-05T02:55:51.117Z,3.41
2017-12-05T02:56:50.912Z,3.47
2017-12-05T02:57:50.882Z,3.4
2017-12-05T02:58:51.136Z,3.29
2017-12-05T02:59:51.151Z,3.31
2017-12-05T03:00:51.162Z,3.48
2017-12-05T03:01:51.179Z,3.48
2017-12-05T03:02:51.197Z,3.47
2017-12-05T03:03:51.203Z,3.53
2017-12-05T03:04:51.212Z,3.48
2017-12-05T03:05:51.270Z,3.41
2017-12-05T03:06:51.238Z,3.31
2017-12-05T03:07:50.744Z,3.36
2017-12-05T03:08:51.015Z,3.4
2017-12-05T03:09:51.023Z,3.48
2017-12-05T03:10:50.783Z,3.42
2017-12-05T03:11:51.350Z,3.42
2017-12-05T03:12:50.808Z,3.51
2017-12-05T03:13:51.326Z,3.55
2017-12-05T03:14:51.336Z,3.58
2017-12-05T03:15:51.347Z,3.37
2017-12-05T03:16:51.362Z,3.42
2017-12-05T03:17:51.123Z,3.45
2017-12-05T03:18:51.388Z,3.45
2017-12-05T03:19:51.152Z,3.45
2017-12-05T03:20:51.422Z,3.51
2017-12-05T03:21:51.435Z,3.44
2017-12-05T03:22:51.444Z,3.48
2017-12-05T03:23:51.199Z,3.5
2017-12-05T03:24:51.213Z,3.55
2017-12-05T03:25:51.476Z,3.62
2017-12-05T03:26:51.288Z,3.55
2017-12-05T03:27:50.996Z,3.55
2017-12-05T03:28:51.265Z,3.55
2017-12-05T03:29:51.527Z,3.63
2017-12-05T03:30:51.295Z,3.55
2017-12-05T03:31:51.551Z,3.55
2017-12-05T03:32:51.568Z,3.59
2017-12-05T03:33:51.072Z,3.62
2017-12-05T03:34:51.591Z,3.59
2017-12-05T03:35:51.606Z,3.66
2017-12-05T03:36:51.616Z,3.58
2017-12-05T03:37:51.625Z,3.6
2017-12-05T03:38:51.640Z,3.51
2017-12-05T03:39:51.661Z,3.65
2017-12-05T03:40:51.694Z,3.68
2017-12-05T03:41:51.726Z,3.59
2017-12-05T03:42:51.693Z,3.58
2017-12-05T03:43:51.712Z,3.62
2017-12-05T03:44:51.463Z,3.76
2017-12-05T03:45:51.735Z,3.7
2017-12-05T03:46:51.741Z,3.68
2017-12-05T03:47:51.755Z,3.73
2017-12-05T03:48:51.765Z,3.6
2017-12-05T03:49:51.781Z,3.77
2017-12-05T03:50:51.853Z,3.74
2017-12-05T03:51:51.803Z,3.66
2017-12-05T03:52:51.312Z,3.65
2017-12-05T03:53:51.577Z,3.74
2017-12-05T03:54:51.847Z,3.63
2017-12-05T03:55:51.614Z,3.63
2017-12-05T03:56:51.919Z,3.69
2017-12-05T03:57:51.882Z,3.62
2017-12-05T03:58:51.645Z,3.62
2017-12-05T03:59:51.908Z,3.73
2017-12-05T04:00:51.666Z,3.66
2017-12-05T04:01:51.938Z,3.77
2017-12-05T04:02:51.949Z,3.8
2017-12-05T04:03:51.957Z,3.99
2017-12-05T04:04:51.984Z,3.87
2017-12-05T04:05:51.983Z,3.87
2017-12-05T04:06:51.745Z,3.78
2017-12-05T04:07:52.007Z,3.8
2017-12-05T04:08:52.022Z,3.8
2017-12-05T04:09:52.032Z,3.8
2017-12-05T04:10:51.795Z,3.76
2017-12-05T04:11:52.211Z,3.84
2017-12-05T04:12:51.823Z,3.83
2017-12-05T04:13:51.836Z,3.65
2017-12-05T04:14:52.101Z,3.81
2017-12-05T04:15:52.111Z,3.76
2017-12-05T04:16:52.133Z,3.73
2017-12-05T04:17:52.139Z,3.76
2017-12-05T04:18:52.163Z,3.84
2017-12-05T04:19:51.916Z,3.86
2017-12-05T04:20:52.178Z,3.78
2017-12-05T04:21:51.686Z,3.76
2017-12-05T04:22:51.954Z,3.83
2017-12-05T04:23:51.985Z,3.88
2017-12-05T04:24:51.975Z,3.92
2017-12-05T04:25:52.245Z,4.01
2017-12-05T04:26:52.059Z,3.78
2017-12-05T04:27:52.270Z,3.76
2017-12-05T04:28:52.287Z,3.87
2017-12-05T04:29:52.293Z,3.94
2017-12-05T04:30:52.316Z,4.02
2017-12-05T04:31:52.071Z,4.1
2017-12-05T04:32:52.082Z,4.17
2017-12-05T04:33:52.094Z,4.05
2017-12-05T04:34:52.358Z,4.13
2017-12-05T04:35:52.372Z,4.04
2017-12-05T04:36:52.387Z,3.95
2017-12-05T04:37:52.396Z,3.92
2017-12-05T04:38:52.410Z,3.96
2017-12-05T04:39:52.434Z,4.02
2017-12-05T04:40:52.439Z,3.94
2017-12-05T04:41:52.502Z,3.99
2017-12-05T04:42:52.465Z,3.98
2017-12-05T04:43:52.473Z,4.06
2017-12-05T04:44:52.493Z,4.05
2017-12-05T04:45:52.250Z,4.04
2017-12-05T04:46:52.263Z,4.06
2017-12-05T04:47:52.540Z,4.14
2017-12-05T04:48:52.540Z,4.22
2017-12-05T04:49:52.557Z,4.22
2017-12-05T04:50:52.061Z,4.26
2017-12-05T04:51:52.327Z,4.17
2017-12-05T04:52:52.648Z,4.2
2017-12-05T04:53:52.356Z,4.2
2017-12-05T04:54:52.120Z,4.19
2017-12-05T04:55:52.634Z,3.99
2017-12-05T04:56:52.695Z,4.04
2017-12-05T04:57:52.657Z,4.12
2017-12-05T04:58:52.421Z,4.19
2017-12-05T04:59:52.456Z,3.99
2017-12-05T05:00:52.454Z,4.05
2017-12-05T05:01:52.459Z,3.98
2017-12-05T05:02:52.474Z,3.98
2017-12-05T05:03:52.232Z,4.02
2017-12-05T05:04:52.774Z,3.99
2017-12-05T05:05:52.767Z,3.96
2017-12-05T05:06:52.539Z,3.8
2017-12-05T05:07:52.541Z,3.87
2017-12-05T05:08:52.802Z,3.99
2017-12-05T05:09:52.561Z,4.01
2017-12-05T05:10:52.836Z,3.94
2017-12-05T05:11:52.893Z,3.86
2017-12-05T05:12:52.854Z,3.86
2017-12-05T05:13:52.614Z,3.86
2017-12-05T05:14:52.881Z,3.99
2017-12-05T05:15:52.897Z,3.86
2017-12-05T05:16:52.911Z,4.05
2017-12-05T05:17:52.920Z,4.06
2017-12-05T05:18:52.932Z,4.04
2017-12-05T05:19:52.948Z,4.01
2017-12-05T05:20:52.960Z,4.04
2017-12-05T05:21:52.971Z,4.08
2017-12-05T05:22:52.730Z,4.05
2017-12-05T05:23:53.002Z,4.08
2017-12-05T05:24:52.507Z,4.1
2017-12-05T05:25:53.030Z,4.08
2017-12-05T05:26:53.087Z,4.24
2017-12-05T05:27:53.054Z,4.24
2017-12-05T05:28:53.062Z,4.2
2017-12-05T05:29:53.077Z,4.08
2017-12-05T05:30:52.835Z,3.91
2017-12-05T05:31:53.102Z,4.02
2017-12-05T05:32:53.114Z,4.13
2017-12-05T05:33:52.875Z,4.02
2017-12-05T05:34:52.903Z,3.98
2017-12-05T05:35:53.156Z,3.99
2017-12-05T05:36:52.915Z,4.02
2017-12-05T05:37:52.927Z,3.92
2017-12-05T05:38:52.952Z,3.96
2017-12-05T05:39:52.955Z,3.96
2017-12-05T05:40:52.966Z,3.98
2017-12-05T05:41:52.978Z,4.05
2017-12-05T05:42:53.244Z,4.01
2017-12-05T05:43:53.261Z,4.06
2017-12-05T05:44:53.275Z,4.01
2017-12-05T05:45:53.289Z,3.91
2017-12-05T05:46:53.047Z,3.91
2017-12-05T05:47:53.324Z,3.78
2017-12-05T05:48:52.830Z,3.87
2017-12-05T05:49:53.091Z,3.86
2017-12-05T05:50:53.098Z,3.78
2017-12-05T05:51:53.113Z,3.88
2017-12-05T05:52:52.873Z,3.83
2017-12-05T05:53:53.393Z,3.91
2017-12-05T05:54:53.406Z,3.94
2017-12-05T05:55:53.164Z,3.88
2017-12-05T05:56:53.433Z,3.84
2017-12-05T05:57:53.496Z,3.96
2017-12-05T05:58:52.953Z,3.96
2017-12-05T05:59:53.218Z,4.04
2017-12-05T06:00:53.236Z,4.02
2017-12-05T06:01:53.302Z,3.98
2017-12-05T06:02:53.513Z,3.98
2017-12-05T06:03:53.523Z,4.04
2017-12-05T06:04:53.299Z,3.96
2017-12-05T06:05:53.295Z,3.94
2017-12-05T06:06:53.312Z,3.99
2017-12-05T06:07:53.573Z,4.12
2017-12-05T06:08:53.594Z,4.1
2017-12-05T06:09:53.349Z,4.1
2017-12-05T06:10:53.615Z,4.19
2017-12-05T06:11:53.125Z,4.12
2017-12-05T06:12:53.692Z,4.12
2017-12-05T06:13:53.403Z,4.02
2017-12-05T06:14:53.672Z,3.94
2017-12-05T06:15:53.682Z,4.1
2017-12-05T06:16:53.448Z,4.13
2017-12-05T06:17:53.710Z,4.08
2017-12-05T06:18:53.475Z,4.16
2017-12-05T06:19:53.483Z,4.14
2017-12-05T06:20:53.754Z,4.19
2017-12-05T06:21:53.766Z,4.31
2017-12-05T06:22:53.521Z,4.3
2017-12-05T06:23:53.537Z,4.31
2017-12-05T06:24:53.546Z,4.13
2017-12-05T06:25:53.837Z,4.23
2017-12-05T06:26:53.824Z,4.37
2017-12-05T06:27:53.890Z,4.37
2017-12-05T06:28:53.600Z,4.34
2017-12-05T06:29:53.865Z,4.22
2017-12-05T06:30:53.378Z,4.28
2017-12-05T06:31:53.646Z,4.23
2017-12-05T06:32:53.910Z,4.3
2017-12-05T06:33:53.702Z,4.2
2017-12-05T06:34:53.935Z,4.12
2017-12-05T06:35:53.951Z,3.96
2017-12-05T06:36:53.967Z,4.06
2017-12-05T06:37:53.727Z,3.98
2017-12-05T06:38:53.989Z,4.02
2017-12-05T06:39:53.498Z,3.95
2017-12-05T06:40:54.021Z,4.04
2017-12-05T06:41:54.031Z,4.13
2017-12-05T06:42:53.837Z,4.31
2017-12-05T06:43:54.059Z,4.2
2017-12-05T06:44:54.072Z,4.3
2017-12-05T06:45:54.080Z,4.2
2017-12-05T06:46:54.098Z,4.12
2017-12-05T06:47:53.860Z,4.06
2017-12-05T06:48:54.124Z,3.99
2017-12-05T06:49:54.145Z,4.14
2017-12-05T06:50:53.898Z,4.17
2017-12-05T06:51:54.162Z,4.13
2017-12-05T06:52:54.230Z,4.24
2017-12-05T06:53:54.190Z,4.19
2017-12-05T06:54:54.204Z,4.14
2017-12-05T06:55:54.217Z,4.2
2017-12-05T06:56:54.231Z,4.08
2017-12-05T06:57:54.294Z,4.17
2017-12-05T06:58:54.258Z,4.04
2017-12-05T06:59:54.271Z,4.01
2017-12-05T07:00:54.034Z,4.06
2017-12-05T07:01:54.059Z,4.06
2017-12-05T07:02:54.315Z,4.04
2017-12-05T07:03:54.325Z,4.02
2017-12-05T07:04:54.340Z,4.19
2017-12-05T07:05:54.355Z,4.24
2017-12-05T07:06:54.366Z,4.14
2017-12-05T07:07:54.384Z,4.23
2017-12-05T07:08:54.141Z,4.26
2017-12-05T07:09:54.408Z,4.14
2017-12-05T07:10:54.423Z,4.05
2017-12-05T07:11:54.438Z,4.14
2017-12-05T07:12:54.496Z,4.1
2017-12-05T07:13:54.508Z,4.2
2017-12-05T07:14:54.477Z,4.19
2017-12-05T07:15:54.232Z,4.19
2017-12-05T07:16:54.500Z,4.17
2017-12-05T07:17:54.260Z,4.19
2017-12-05T07:18:54.295Z,4.3
2017-12-05T07:19:54.036Z,4.13
2017-12-05T07:20:54.556Z,4.17
2017-12-05T07:21:54.566Z,4.2
2017-12-05T07:22:54.074Z,4.22
2017-12-05T07:23:54.604Z,4.26
2017-12-05T07:24:54.351Z,4.19
2017-12-05T07:25:54.621Z,4.16
2017-12-05T07:26:54.381Z,4.31
2017-12-05T07:27:54.445Z,4.19
2017-12-05T07:28:54.407Z,4.17
2017-12-05T07:29:54.674Z,4.14
2017-12-05T07:30:54.434Z,4.12
2017-12-05T07:31:54.446Z,4.19
2017-12-05T07:32:54.465Z,4.04
2017-12-05T07:33:54.782Z,4.01
2017-12-05T07:34:54.810Z,3.96
2017-12-05T07:35:54.752Z,3.96
2017-12-05T07:36:54.520Z,3.94
2017-12-05T07:37:54.544Z,3.99
2017-12-05T07:38:54.797Z,4.1
2017-12-05T07:39:54.555Z,4.02
2017-12-05T07:40:54.566Z,4.14
2017-12-05T07:41:54.592Z,4.12
2017-12-05T07:42:54.894Z,4.14
2017-12-05T07:43:54.864Z,4.3
2017-12-05T07:44:54.631Z,4.35
2017-12-05T07:45:54.635Z,4.26
2017-12-05T07:46:54.898Z,4.4
2017-12-05T07:47:54.916Z,4.48
2017-12-05T07:48:54.926Z,4.49
2017-12-05T07:49:54.681Z,4.22
2017-12-05T07:50:54.950Z,4.55
2017-12-05T07:51:54.709Z,4.5
2017-12-05T07:52:54.726Z,4.66
2017-12-05T07:53:54.996Z,4.5
2017-12-05T07:54:55.008Z,4.49
2017-12-05T07:55:55.019Z,4.45
2017-12-05T07:56:55.031Z,4.5
2017-12-05T07:57:54.850Z,4.62
2017-12-05T07:58:54.811Z,4.74
2017-12-05T07:59:55.074Z,4.6
2017-12-05T08:00:55.088Z,4.71
2017-12-05T08:01:55.108Z,4.7
2017-12-05T08:02:55.166Z,4.84
2017-12-05T08:03:55.158Z,4.75
2017-12-05T08:04:55.140Z,4.82
2017-12-05T08:05:55.158Z,4.75
2017-12-05T08:06:54.921Z,4.77
2017-12-05T08:07:54.931Z,4.82
2017-12-05T08:08:54.946Z,4.82
2017-12-05T08:09:55.213Z,4.7
2017-12-05T08:10:54.979Z,4.84
2017-12-05T08:11:55.243Z,4.75
2017-12-05T08:12:55.318Z,4.68
2017-12-05T08:13:55.038Z,4.7
2017-12-05T08:14:55.038Z,4.92
2017-12-05T08:15:55.079Z,4.82
2017-12-05T08:16:55.068Z,4.68
2017-12-05T08:17:55.327Z,4.66
2017-12-05T08:18:55.085Z,4.73
2017-12-05T08:19:55.353Z,4.67
2017-12-05T08:20:55.117Z,4.6
2017-12-05T08:21:55.387Z,4.74
2017-12-05T08:22:55.397Z,4.67
2017-12-05T08:23:55.161Z,4.75
2017-12-05T08:24:55.175Z,4.67
2017-12-05T08:25:55.188Z,4.6
2017-12-05T08:26:55.202Z,4.75
2017-12-05T08:27:55.266Z,4.74
2017-12-05T08:28:55.479Z,4.6
2017-12-05T08:29:55.496Z,4.66
2017-12-05T08:30:55.267Z,4.87
2017-12-05T08:31:55.272Z,4.74
2017-12-05T08:32:55.538Z,4.71
2017-12-05T08:33:55.408Z,4.92
2017-12-05T08:34:55.568Z,4.9
2017-12-05T08:35:55.582Z,5.05
2017-12-05T08:36:55.340Z,4.94
2017-12-05T08:37:55.609Z,4.9
2017-12-05T08:38:55.382Z,4.87
2017-12-05T08:39:55.636Z,4.96
2017-12-05T08:40:55.147Z,4.87
2017-12-05T08:41:55.667Z,4.84
2017-12-05T08:42:55.730Z,4.94
2017-12-05T08:43:55.693Z,5.02
2017-12-05T08:44:55.711Z,5.29
2017-12-05T08:45:55.721Z,5.18
2017-12-05T08:46:55.743Z,5.05
2017-12-05T08:47:55.753Z,5.05
2017-12-05T08:48:55.512Z,5.1
2017-12-05T08:49:55.784Z,4.93
2017-12-05T08:50:55.801Z,4.96
2017-12-05T08:51:55.802Z,5.11
2017-12-05T08:52:55.819Z,4.99
2017-12-05T08:53:55.844Z,5.1
2017-12-05T08:54:55.344Z,5.07
2017-12-05T08:55:55.615Z,5.05
2017-12-05T08:56:55.873Z,5.08
2017-12-05T08:57:55.943Z,5.02
2017-12-05T08:58:55.655Z,5
2017-12-05T08:59:55.938Z,4.86
2017-12-05T09:00:55.683Z,4.9
2017-12-05T09:01:55.955Z,4.92
2017-12-05T09:02:55.963Z,4.87
2017-12-05T09:03:55.983Z,4.87
2017-12-05T09:04:55.991Z,4.82
2017-12-05T09:05:56.036Z,4.86
2017-12-05T09:06:56.024Z,4.94
2017-12-05T09:07:56.030Z,5.04
2017-12-05T09:08:56.048Z,5.08
2017-12-05T09:09:55.809Z,5.08
2017-12-05T09:10:56.075Z,5.04
2017-12-05T09:11:55.837Z,5.1
2017-12-05T09:12:55.907Z,4.92
2017-12-05T09:13:55.610Z,4.86
2017-12-05T09:14:56.134Z,4.92
2017-12-05T09:15:55.891Z,5.08
2017-12-05T09:16:56.173Z,5.1
2017-12-05T09:17:56.182Z,5.1
2017-12-05T09:18:56.192Z,5.25
2017-12-05T09:19:56.205Z,5.43
2017-12-05T09:20:56.228Z,5.51
2017-12-05T09:21:56.228Z,5.43
2017-12-05T09:22:56.245Z,5.44
2017-12-05T09:23:56.009Z,5.64
2017-12-05T09:24:56.276Z,5.64
2017-12-05T09:25:56.287Z,5.64
2017-12-05T09:26:56.055Z,5.68
2017-12-05T09:27:56.376Z,5.59
2017-12-05T09:28:56.335Z,5.68
2017-12-05T09:29:56.091Z,5.73
2017-12-05T09:30:56.363Z,5.75
2017-12-05T09:31:56.375Z,5.84
2017-12-05T09:32:56.390Z,6.02
2017-12-05T09:33:56.153Z,6.08
2017-12-05T09:34:56.170Z,6.09
2017-12-05T09:35:56.433Z,6.16
2017-12-05T09:36:56.451Z,5.97
2017-12-05T09:37:56.464Z,5.8
2017-12-05T09:38:56.227Z,5.73
2017-12-05T09:39:56.295Z,5.89
2017-12-05T09:40:56.258Z,5.98
2017-12-05T09:41:56.273Z,6.05
2017-12-05T09:42:56.540Z,6.07
2017-12-05T09:43:56.304Z,5.9
2017-12-05T09:44:56.722Z,6.09
2017-12-05T09:45:56.612Z,6.17
2017-12-05T09:46:56.351Z,6.17
2017-12-05T09:47:56.626Z,6.11
2017-12-05T09:48:56.380Z,5.91
2017-12-05T09:49:56.646Z,6.12
2017-12-05T09:50:56.419Z,6.12
2017-12-05T09:51:56.820Z,5.98
2017-12-05T09:52:56.700Z,5.99
2017-12-05T09:53:56.712Z,6.07
2017-12-05T09:54:56.729Z,6.02
2017-12-05T09:55:56.484Z,5.93
2017-12-05T09:56:56.498Z,5.99
2017-12-05T09:57:56.521Z,5.94
2017-12-05T09:58:56.529Z,6.02
2017-12-05T09:59:56.599Z,6.04
2017-12-05T10:00:56.817Z,5.98
2017-12-05T10:01:56.935Z,5.98
2017-12-05T10:02:56.845Z,5.82
2017-12-05T10:03:56.606Z,5.91
2017-12-05T10:04:56.879Z,5.9
2017-12-05T10:05:56.636Z,5.98
2017-12-05T10:06:56.903Z,6.04
2017-12-05T10:07:56.672Z,6.04
2017-12-05T10:08:56.933Z,6.04
2017-12-05T10:09:56.711Z,6.08
2017-12-05T10:10:56.461Z,6.19
2017-12-05T10:11:56.986Z,6.28
2017-12-05T10:12:56.999Z,6.17
2017-12-05T10:13:57.012Z,6.17
2017-12-05T10:14:56.830Z,6.09
2017-12-05T10:15:56.785Z,6.35
2017-12-05T10:16:56.547Z,6.2
2017-12-05T10:17:56.815Z,6.26
2017-12-05T10:18:57.082Z,6.11
2017-12-05T10:19:56.846Z,6.14
2017-12-05T10:20:57.119Z,6.28
2017-12-05T10:21:56.875Z,6.26
2017-12-05T10:22:56.890Z,6.12
2017-12-05T10:23:56.972Z,5.99
2017-12-05T10:24:56.666Z,6.12
2017-12-05T10:25:56.936Z,6.01
2017-12-05T10:26:56.956Z,6.08
2017-12-05T10:27:56.713Z,6.33
2017-12-05T10:28:56.729Z,6.24
2017-12-05T10:29:57.044Z,6.26
2017-12-05T10:30:57.013Z,6.36
2017-12-05T10:31:57.282Z,6.16
2017-12-05T10:32:57.296Z,6.22
2017-12-05T10:33:57.312Z,6.12
2017-12-05T10:34:57.070Z,6.17
2017-12-05T10:35:57.113Z,6.09
2017-12-05T10:36:57.361Z,5.94
2017-12-05T10:37:57.376Z,6.19
2017-12-05T10:38:57.142Z,6.38
2017-12-05T10:39:57.402Z,6.33
2017-12-05T10:40:57.416Z,6.38
2017-12-05T10:41:57.428Z,6.44
2017-12-05T10:42:57.490Z,6.46
2017-12-05T10:43:57.210Z,6.33
2017-12-05T10:44:57.022Z,6.38
2017-12-05T10:45:57.239Z,6.39
2017-12-05T10:46:57.000Z,6.48
2017-12-05T10:47:57.526Z,6.41
2017-12-05T10:48:57.546Z,6.64
2017-12-05T10:49:57.349Z,6.57
2017-12-05T10:50:57.566Z,6.77
2017-12-05T10:51:57.331Z,6.85
2017-12-05T10:52:57.595Z,6.95
2017-12-05T10:53:57.614Z,7.06
2017-12-05T10:54:57.727Z,7.03
2017-12-05T10:55:57.394Z,6.92
2017-12-05T10:56:57.409Z,6.57
2017-12-05T10:57:57.429Z,6.6
2017-12-05T10:58:57.714Z,6.49
2017-12-05T10:59:57.604Z,6.46
2017-12-05T11:00:57.224Z,6.49
2017-12-05T11:01:57.737Z,6.48
2017-12-05T11:02:57.752Z,6.72
2017-12-05T11:03:57.563Z,6.88
2017-12-05T11:04:57.528Z,6.97
2017-12-05T11:05:57.548Z,6.96
2017-12-05T11:06:57.817Z,6.85
2017-12-05T11:07:57.832Z,6.66
2017-12-05T11:08:57.675Z,6.52
2017-12-05T11:09:57.362Z,6.57
2017-12-05T11:10:57.646Z,6.64
2017-12-05T11:11:57.648Z,6.77
2017-12-05T11:12:57.912Z,6.77
2017-12-05T11:13:57.422Z,6.72
2017-12-05T11:14:58.054Z,6.67
2017-12-05T11:15:57.962Z,6.66
2017-12-05T11:16:57.978Z,6.7
2017-12-05T11:17:57.996Z,6.66
2017-12-05T11:18:57.506Z,6.74
2017-12-05T11:19:58.129Z,6.75
2017-12-05T11:20:57.794Z,6.88
2017-12-05T11:21:58.056Z,7.17
2017-12-05T11:22:57.832Z,7.33
2017-12-05T11:23:57.838Z,7.33
2017-12-05T11:24:57.854Z,7.11
2017-12-05T11:25:58.126Z,7.02
2017-12-05T11:26:58.148Z,7
2017-12-05T11:27:58.161Z,7.31
2017-12-05T11:28:57.921Z,7.42
2017-12-05T11:29:57.988Z,7.53
2017-12-05T11:30:57.956Z,7.48
2017-12-05T11:31:57.970Z,7.39
2017-12-05T11:32:58.248Z,7.23
2017-12-05T11:33:58.003Z,7.29
2017-12-05T11:34:58.017Z,7.1
2017-12-05T11:35:58.033Z,6.95
2017-12-05T11:36:58.051Z,7.02
2017-12-05T11:37:57.814Z,7.15
2017-12-05T11:38:58.339Z,7.32
2017-12-05T11:39:58.346Z,7.33
2017-12-05T11:40:58.115Z,7.4
2017-12-05T11:41:58.382Z,7.29
2017-12-05T11:42:58.148Z,7.18
2017-12-05T11:43:58.160Z,6.88
2017-12-05T11:44:58.228Z,6.85
2017-12-05T11:45:58.447Z,6.74
2017-12-05T11:46:58.209Z,6.82
2017-12-05T11:47:58.229Z,6.88
2017-12-05T11:48:58.277Z,6.78
2017-12-05T11:49:58.524Z,6.77
2017-12-05T11:50:58.279Z,6.87
2017-12-05T11:51:58.547Z,6.88
2017-12-05T11:52:58.563Z,6.72
2017-12-05T11:53:58.578Z,6.74
2017-12-05T11:54:58.348Z,6.87
2017-12-05T11:55:58.360Z,6.79
2017-12-05T11:56:58.374Z,6.77
2017-12-05T11:57:58.640Z,6.85
2017-12-05T11:58:58.405Z,6.85
2017-12-05T11:59:58.472Z,7.11
2017-12-05T12:00:58.688Z,7.28
2017-12-05T12:01:58.451Z,7.15
2017-12-05T12:02:58.468Z,7.13
2017-12-05T12:03:58.735Z,7.05
2017-12-05T12:04:58.769Z,7.07
2017-12-05T12:05:58.516Z,7.24
2017-12-05T12:06:58.790Z,7.28
2017-12-05T12:07:58.835Z,7.33
2017-12-05T12:08:58.817Z,7.42
2017-12-05T12:09:58.581Z,7.4
2017-12-05T12:10:58.855Z,7.4
2017-12-05T12:11:58.615Z,7.38
2017-12-05T12:12:58.628Z,7.57
2017-12-05T12:13:58.394Z,7.67
2017-12-05T12:14:58.965Z,7.73
2017-12-05T12:15:58.680Z,7.76
2017-12-05T12:16:58.954Z,7.97
2017-12-05T12:17:58.459Z,7.93
2017-12-05T12:18:58.998Z,8.08
2017-12-05T12:19:58.998Z,8.12
2017-12-05T12:20:58.821Z,8.34
2017-12-05T12:21:58.574Z,8.1
2017-12-05T12:22:58.800Z,8.01
2017-12-05T12:23:58.819Z,7.88
2017-12-05T12:24:58.835Z,7.66
2017-12-05T12:25:59.103Z,7.58
2017-12-05T12:26:58.874Z,7.57
2017-12-05T12:27:58.882Z,7.5
2017-12-05T12:28:58.902Z,7.24
2017-12-05T12:29:59.123Z,7.32
2017-12-05T12:30:59.185Z,7.51
2017-12-05T12:31:59.207Z,7.72
2017-12-05T12:32:59.220Z,7.75
2017-12-05T12:33:59.241Z,7.67
2017-12-05T12:34:58.803Z,7.54
2017-12-05T12:35:59.020Z,7.54
2017-12-05T12:36:59.290Z,7.56
2017-12-05T12:37:59.307Z,7.63
2017-12-05T12:38:59.328Z,7.67
2017-12-05T12:39:58.833Z,7.87
2017-12-05T12:40:59.355Z,8.05
2017-12-05T12:41:59.119Z,7.88
2017-12-05T12:42:59.389Z,7.61
2017-12-05T12:43:59.428Z,7.6
2017-12-05T12:44:59.474Z,7.56
2017-12-05T12:45:59.438Z,7.85
2017-12-05T12:46:59.454Z,7.85
2017-12-05T12:47:59.481Z,7.87
2017-12-05T12:48:59.493Z,7.85
2017-12-05T12:49:59.516Z,7.75
2017-12-05T12:50:59.276Z,7.87
2017-12-05T12:51:59.289Z,7.91
2017-12-05T12:52:59.562Z,7.83
2017-12-05T12:53:59.592Z,7.87
2017-12-05T12:54:59.748Z,8
2017-12-05T12:55:59.356Z,8.15
2017-12-05T12:56:59.373Z,7.97
2017-12-05T12:57:59.640Z,8.01
2017-12-05T12:58:59.406Z,7.98
2017-12-05T12:59:59.724Z,7.85
2017-12-05T13:00:59.440Z,7.98
2017-12-05T13:01:59.722Z,7.83
2017-12-05T13:02:59.223Z,7.66
2017-12-05T13:03:59.761Z,7.7
2017-12-05T13:04:59.523Z,7.69
2017-12-05T13:05:59.780Z,7.47
2017-12-05T13:06:59.545Z,7.6
2017-12-05T13:07:59.560Z,7.54
2017-12-05T13:08:59.836Z,7.7
2017-12-05T13:09:59.593Z,7.6
2017-12-05T13:10:59.612Z,7.6
2017-12-05T13:11:59.878Z,7.7
2017-12-05T13:12:59.698Z,7.66
2017-12-05T13:13:59.909Z,7.77
2017-12-05T13:14:59.943Z,7.77
2017-12-05T13:15:59.940Z,7.66
2017-12-05T13:16:59.958Z,7.39
2017-12-05T13:17:59.728Z,7.14
2017-12-05T13:19:00.049Z,7.11
2017-12-05T13:20:00.014Z,7.2
2017-12-05T13:20:59.783Z,7.29
2017-12-05T13:22:00.049Z,7.13
2017-12-05T13:22:59.891Z,7.29